createdAt,value
2023-12-18T00:03:05.756Z,44.30
2023-12-18T00:06:07.621Z,48.40
2023-12-18T00:09:09.344Z,47.80
2023-12-18T00:12:11.847Z,49.40
2023-12-18T00:15:13.821Z,44.60
2023-12-18T00:18:15.602Z,49.20
2023-12-18T00:21:17.521Z,44.80
2023-12-18T00:24:19.353Z,47.60
2023-12-18T00:30:22.909Z,43.10
2023-12-18T00:33:24.871Z,46.00
2023-12-18T00:36:26.676Z,45.00
2023-12-18T00:39:28.660Z,50.90
2023-12-18T00:42:30.350Z,46.20
2023-12-18T00:48:33.796Z,43.10
2023-12-18T00:51:35.581Z,40.60
2023-12-18T00:54:37.427Z,42.80
2023-12-18T00:57:39.296Z,47.60
2023-12-18T01:00:41.059Z,43.90
2023-12-18T01:03:43.109Z,44.60
2023-12-18T01:06:45.472Z,48.40
2023-12-18T01:09:47.277Z,42.40
2023-12-18T01:15:50.687Z,44.00
2023-12-18T01:18:52.416Z,45.90
2023-12-18T01:21:54.222Z,45.80
2023-12-18T01:24:55.874Z,45.20
2023-12-18T01:30:59.429Z,42.40
2023-12-18T01:34:01.498Z,41.60
2023-12-18T01:37:03.344Z,43.00
2023-12-18T01:40:05.507Z,44.50
2023-12-18T01:43:26.582Z,47.00
2023-12-18T01:46:28.414Z,42.90
2023-12-18T01:52:32.166Z,40.70
2023-12-18T01:55:33.766Z,41.10
2023-12-18T02:01:37.741Z,39.90
2023-12-18T02:04:39.465Z,40.60
2023-12-18T02:07:41.555Z,39.30
2023-12-18T02:10:43.802Z,37.20
2023-12-18T02:13:45.488Z,38.50
2023-12-18T02:19:48.686Z,36.40
2023-12-18T02:22:50.549Z,34.40
2023-12-18T02:28:53.796Z,34.60
2023-12-18T02:34:57.120Z,35.00
2023-12-18T02:37:58.870Z,33.20
2023-12-18T02:41:00.996Z,35.50
2023-12-18T02:44:02.662Z,39.30
2023-12-18T02:47:04.335Z,35.50
2023-12-18T02:53:07.830Z,38.60
2023-12-18T02:59:11.075Z,36.30
2023-12-18T03:02:13.421Z,36.60
2023-12-18T03:05:15.403Z,39.20
2023-12-18T03:08:17.122Z,34.40
2023-12-18T03:11:18.927Z,37.90
2023-12-18T03:14:20.645Z,36.50
2023-12-18T03:17:22.551Z,38.10
2023-12-18T03:20:24.623Z,34.30
2023-12-18T03:23:26.433Z,36.60
2023-12-18T03:26:28.147Z,37.40
2023-12-18T03:32:31.599Z,37.50
2023-12-18T03:35:33.320Z,36.70
2023-12-18T03:41:36.651Z,35.10
2023-12-18T03:44:38.378Z,37.50
2023-12-18T03:50:42.011Z,38.00
2023-12-18T03:56:45.222Z,41.00
2023-12-18T04:02:48.508Z,36.70
2023-12-18T04:08:51.857Z,36.90
2023-12-18T04:14:55.204Z,36.30
2023-12-18T04:20:58.674Z,37.90
2023-12-18T04:27:01.920Z,39.80
2023-12-18T04:30:03.788Z,35.40
2023-12-18T04:33:05.804Z,37.90
2023-12-18T04:36:07.853Z,37.80
2023-12-18T04:39:11.309Z,41.80
2023-12-18T04:42:13.104Z,39.40
2023-12-18T04:48:16.531Z,39.00
2023-12-18T04:51:18.984Z,36.80
2023-12-18T04:54:20.690Z,37.60
2023-12-18T05:00:24.259Z,34.90
2023-12-18T05:06:29.155Z,34.20
2023-12-18T05:09:31.248Z,34.50
2023-12-18T05:12:32.950Z,36.60
2023-12-18T05:18:36.579Z,41.80
2023-12-18T05:21:38.430Z,40.20
2023-12-18T05:24:40.585Z,41.00
2023-12-18T05:27:42.472Z,43.50
2023-12-18T05:30:44.322Z,43.00
2023-12-18T05:33:46.305Z,41.60
2023-12-18T05:36:48.213Z,39.60
2023-12-18T05:39:50.056Z,39.60
2023-12-18T05:42:51.858Z,36.90
2023-12-18T05:48:55.419Z,36.20
2023-12-18T05:54:58.737Z,35.50
2023-12-18T06:01:03.067Z,35.10
2023-12-18T06:04:04.996Z,34.40
2023-12-18T06:07:06.670Z,37.40
2023-12-18T06:10:09.274Z,34.40
2023-12-18T06:13:11.045Z,37.40
2023-12-18T06:19:14.419Z,35.80
2023-12-18T06:25:17.957Z,34.10
2023-12-18T06:31:21.291Z,34.90
2023-12-18T06:34:26.164Z,31.90
2023-12-18T06:37:30.113Z,33.40
2023-12-18T06:40:33.002Z,30.80
2023-12-18T06:46:36.224Z,32.40
2023-12-18T06:52:39.812Z,36.90
2023-12-18T06:55:41.723Z,35.20
2023-12-18T06:58:43.425Z,34.30
2023-12-18T07:04:46.918Z,35.10
2023-12-18T07:07:48.794Z,32.20
2023-12-18T07:13:52.067Z,30.80
2023-12-18T07:16:53.788Z,35.20
2023-12-18T07:22:57.001Z,32.60
2023-12-18T07:25:58.664Z,29.60
2023-12-18T07:32:02.123Z,31.20
2023-12-18T07:35:04.604Z,28.90
2023-12-18T07:38:06.302Z,27.90
2023-12-18T07:41:08.018Z,29.00
2023-12-18T07:44:09.686Z,29.90
2023-12-18T07:50:12.996Z,33.30
2023-12-18T07:56:16.553Z,30.80
2023-12-18T07:59:18.213Z,34.30
2023-12-18T08:05:21.482Z,35.70
2023-12-18T08:08:23.184Z,29.60
2023-12-18T08:14:26.381Z,32.00
2023-12-18T08:17:28.231Z,30.70
2023-12-18T08:20:30.113Z,28.40
2023-12-18T08:26:33.329Z,28.20
2023-12-18T08:32:36.914Z,29.10
2023-12-18T08:35:38.644Z,31.70
2023-12-18T08:38:40.246Z,26.80
2023-12-18T08:41:42.009Z,28.20
2023-12-18T08:44:43.900Z,27.20
2023-12-18T08:47:45.734Z,26.50
2023-12-18T08:50:47.565Z,28.20
2023-12-18T08:53:49.361Z,26.60
2023-12-18T08:56:51.119Z,27.00
2023-12-18T08:59:53.124Z,28.50
2023-12-18T09:02:54.845Z,24.30
2023-12-18T09:05:56.553Z,27.30
2023-12-18T09:08:58.432Z,26.40
2023-12-18T09:12:00.166Z,29.70
2023-12-18T09:15:01.811Z,27.20
2023-12-18T09:18:03.957Z,25.30
2023-12-18T09:21:05.636Z,26.70
2023-12-18T09:24:07.524Z,24.80
2023-12-18T09:27:09.192Z,24.50
2023-12-18T09:30:11.939Z,26.80
2023-12-18T09:33:13.875Z,27.10
2023-12-18T09:36:16.262Z,25.50
2023-12-18T09:39:18.173Z,26.50
2023-12-18T09:42:21.487Z,25.10
2023-12-18T09:45:24.519Z,23.60
2023-12-18T09:48:26.453Z,25.90
2023-12-18T09:51:28.378Z,23.70
2023-12-18T09:54:30.445Z,23.30
2023-12-18T09:57:32.298Z,24.60
2023-12-18T10:00:34.448Z,23.20
2023-12-18T10:03:36.354Z,23.70
2023-12-18T10:06:38.125Z,22.00
2023-12-18T10:09:40.330Z,22.70
2023-12-18T10:12:42.752Z,21.80
2023-12-18T10:15:44.736Z,22.70
2023-12-18T10:18:46.526Z,23.00
2023-12-18T10:21:49.477Z,23.80
2023-12-18T10:24:51.177Z,25.90
2023-12-18T10:27:56.155Z,22.20
2023-12-18T10:30:58.154Z,22.70
2023-12-18T10:34:00.071Z,21.50
2023-12-18T10:37:01.961Z,21.20
2023-12-18T10:40:04.208Z,22.10
2023-12-18T10:43:25.044Z,21.00
2023-12-18T10:46:27.690Z,21.10
2023-12-18T10:49:29.521Z,22.00
2023-12-18T10:52:32.189Z,22.10
2023-12-18T10:55:34.181Z,22.10
2023-12-18T10:58:36.015Z,21.40
2023-12-18T11:01:38.060Z,23.90
2023-12-18T11:04:39.766Z,21.70
2023-12-18T11:07:42.169Z,20.90
2023-12-18T11:10:44.101Z,20.60
2023-12-18T11:13:46.459Z,20.80
2023-12-18T11:17:08.422Z,23.00
2023-12-18T11:20:24.315Z,21.40
2023-12-18T11:23:27.013Z,22.00
2023-12-18T11:26:30.104Z,23.20
2023-12-18T11:29:42.622Z,20.80
2023-12-18T11:32:47.777Z,21.50
2023-12-18T11:35:50.265Z,22.20
2023-12-18T11:38:52.016Z,21.90
2023-12-18T11:41:53.769Z,25.10
2023-12-18T11:44:55.482Z,23.10
2023-12-18T11:47:58.750Z,22.60
2023-12-18T11:51:01.632Z,21.30
2023-12-18T11:54:03.627Z,22.20
2023-12-18T11:57:15.400Z,21.80
2023-12-18T12:00:17.759Z,21.70
2023-12-18T12:03:20.293Z,20.60
2023-12-18T12:06:25.406Z,23.60
2023-12-18T12:09:27.362Z,22.20
2023-12-18T12:12:29.142Z,21.00
2023-12-18T12:15:30.930Z,22.50
2023-12-18T12:18:35.834Z,21.50
2023-12-18T12:21:45.297Z,21.70
2023-12-18T12:24:49.475Z,16.60
2023-12-18T12:27:51.884Z,18.20
2023-12-18T12:30:54.145Z,18.60
2023-12-18T12:33:56.293Z,25.70
2023-12-18T12:37:02.058Z,19.90
2023-12-18T12:40:05.519Z,17.00
2023-12-18T12:43:07.691Z,15.90
2023-12-18T12:46:09.599Z,17.60
2023-12-18T12:49:12.276Z,18.60
2023-12-18T12:52:14.973Z,19.70
2023-12-18T12:55:16.771Z,18.60
2023-12-18T12:58:18.465Z,18.10
2023-12-18T13:01:20.232Z,18.10
2023-12-18T13:04:23.174Z,18.40
2023-12-18T13:07:25.090Z,21.70
2023-12-18T13:10:27.261Z,18.90
2023-12-18T13:13:29.508Z,18.60
2023-12-18T13:16:31.180Z,18.00
2023-12-18T13:19:34.644Z,20.20
2023-12-18T13:22:36.426Z,20.60
2023-12-18T13:25:38.099Z,19.90
2023-12-18T13:28:40.560Z,19.40
2023-12-18T13:31:42.355Z,20.00
2023-12-18T13:34:44.153Z,17.10
2023-12-18T13:37:46.127Z,17.30
2023-12-18T13:40:47.927Z,19.50
2023-12-18T13:43:49.638Z,19.00
2023-12-18T13:46:51.667Z,18.10
2023-12-18T13:49:53.690Z,18.90
2023-12-18T13:52:55.469Z,20.50
2023-12-18T13:55:57.121Z,16.20
2023-12-18T13:59:00.917Z,18.20
2023-12-18T14:02:03.504Z,18.70
2023-12-18T14:05:16.932Z,20.80
2023-12-18T14:08:18.699Z,17.30
2023-12-18T14:11:20.460Z,18.40
2023-12-18T14:14:22.173Z,18.40
2023-12-18T14:17:23.888Z,15.50
2023-12-18T14:20:25.634Z,14.30
2023-12-18T14:23:27.247Z,18.30
2023-12-18T14:26:28.954Z,16.80
2023-12-18T14:29:30.522Z,17.00
2023-12-18T14:32:32.311Z,15.20
2023-12-18T14:35:34.432Z,19.60
2023-12-18T14:38:36.126Z,20.60
2023-12-18T14:41:37.886Z,18.00
2023-12-18T14:44:40.461Z,16.00
2023-12-18T14:47:42.444Z,16.90
2023-12-18T14:50:44.098Z,17.50
2023-12-18T14:53:45.831Z,18.00
2023-12-18T14:56:47.491Z,19.10
2023-12-18T14:59:49.248Z,18.10
2023-12-18T15:02:50.890Z,20.90
2023-12-18T15:05:53.021Z,20.70
2023-12-18T15:08:54.767Z,20.70
2023-12-18T15:11:56.728Z,20.90
2023-12-18T15:14:58.461Z,32.00
2023-12-18T15:18:00.190Z,26.40
2023-12-18T15:21:03.720Z,28.20
2023-12-18T15:24:09.647Z,23.70
2023-12-18T15:27:12.578Z,24.80
2023-12-18T15:30:15.150Z,20.70
2023-12-18T15:33:18.095Z,19.00
2023-12-18T15:36:20.373Z,19.50
2023-12-18T15:39:24.205Z,22.40
2023-12-18T15:42:26.140Z,22.40
2023-12-18T15:45:27.832Z,20.00
2023-12-18T15:48:29.619Z,19.90
2023-12-18T15:51:31.387Z,19.80
2023-12-18T15:54:33.074Z,18.00
2023-12-18T15:57:36.183Z,18.30
2023-12-18T16:00:38.132Z,18.80
2023-12-18T16:03:40.409Z,21.60
2023-12-18T16:06:42.237Z,20.60
2023-12-18T16:09:43.962Z,19.60
2023-12-18T16:12:46.089Z,22.40
2023-12-18T16:15:47.987Z,23.40
2023-12-18T16:18:50.025Z,20.60
2023-12-18T16:21:51.850Z,21.50
2023-12-18T16:24:53.931Z,21.50
2023-12-18T16:27:55.691Z,20.50
2023-12-18T16:30:58.242Z,19.70
2023-12-18T16:34:00.128Z,19.40
2023-12-18T16:37:03.472Z,22.60
2023-12-18T16:40:05.840Z,21.70
2023-12-18T16:43:07.567Z,22.70
2023-12-18T16:46:09.363Z,21.10
2023-12-18T16:49:11.152Z,23.00
2023-12-18T16:52:13.038Z,24.20
2023-12-18T16:55:14.813Z,22.40
2023-12-18T16:58:16.471Z,24.40
2023-12-18T17:01:18.403Z,24.90
2023-12-18T17:04:20.132Z,22.40
2023-12-18T17:07:22.326Z,22.50
2023-12-18T17:10:24.222Z,20.80
2023-12-18T17:13:26.206Z,21.10
2023-12-18T17:16:27.900Z,22.90
2023-12-18T17:19:29.685Z,29.30
2023-12-18T17:22:31.336Z,25.50
2023-12-18T17:25:33.123Z,28.80
2023-12-18T17:28:34.708Z,30.00
2023-12-18T17:31:36.837Z,30.50
2023-12-18T17:34:38.603Z,27.80
2023-12-18T17:37:40.398Z,26.90
2023-12-18T17:43:43.585Z,31.00
2023-12-18T17:46:45.348Z,28.90
2023-12-18T17:49:47.268Z,27.20
2023-12-18T17:52:49.941Z,27.60
2023-12-18T17:55:51.558Z,26.50
2023-12-18T17:58:53.426Z,26.90
2023-12-18T18:01:55.031Z,27.80
2023-12-18T18:11:06.535Z,28.00
2023-12-18T18:14:08.095Z,27.20
2023-12-18T18:20:11.767Z,32.10
2023-12-18T18:23:13.465Z,29.40
2023-12-18T18:26:15.079Z,33.50
2023-12-18T18:29:16.756Z,38.20
2023-12-18T18:32:18.462Z,37.60
2023-12-18T18:35:20.234Z,35.40
2023-12-18T18:38:24.809Z,33.50
2023-12-18T18:44:28.134Z,35.20
2023-12-18T18:47:29.820Z,36.70
2023-12-18T18:50:31.426Z,31.50
2023-12-18T18:53:33.159Z,29.60
2023-12-18T18:56:34.756Z,33.10
2023-12-18T19:02:37.896Z,32.70
2023-12-18T19:08:41.636Z,34.70
2023-12-18T19:11:43.306Z,34.90
2023-12-18T19:14:44.932Z,32.40
2023-12-18T19:17:47.008Z,33.90
2023-12-18T19:20:50.458Z,31.70
2023-12-18T19:23:52.471Z,32.10
2023-12-18T19:29:55.716Z,37.30
2023-12-18T19:32:57.516Z,36.70
2023-12-18T19:35:59.148Z,33.00
2023-12-18T19:42:02.323Z,36.40
2023-12-18T19:48:05.847Z,36.90
2023-12-18T19:51:07.472Z,44.50
2023-12-18T19:54:09.347Z,37.70
2023-12-18T19:57:10.921Z,44.00
2023-12-18T20:03:14.728Z,43.10
2023-12-18T20:06:16.725Z,41.80
2023-12-18T20:09:19.005Z,43.90
2023-12-18T20:12:20.791Z,47.90
2023-12-18T20:15:22.514Z,39.90
2023-12-18T20:18:24.373Z,42.70
2023-12-18T20:21:26.149Z,47.40
2023-12-18T20:24:28.220Z,44.60
2023-12-18T20:27:29.894Z,42.60
2023-12-18T20:30:31.604Z,40.70
2023-12-18T20:33:36.291Z,40.00
2023-12-18T20:36:38.034Z,39.30
2023-12-18T20:39:39.958Z,38.70
2023-12-18T20:42:41.933Z,42.70
2023-12-18T20:45:43.744Z,43.50
2023-12-18T20:48:45.530Z,38.90
2023-12-18T20:51:47.263Z,38.70
2023-12-18T20:54:49.428Z,40.40
2023-12-18T20:57:51.110Z,42.00
2023-12-18T21:00:52.906Z,46.90
2023-12-18T21:03:54.652Z,47.90
2023-12-18T21:06:56.774Z,47.90
2023-12-18T21:09:59.685Z,39.40
2023-12-18T21:13:02.205Z,43.70
2023-12-18T21:16:04.169Z,44.50
2023-12-18T21:19:05.925Z,60.50
2023-12-18T21:22:07.670Z,52.90
2023-12-18T21:25:10.984Z,46.80
2023-12-18T21:28:12.604Z,52.70
2023-12-18T21:31:15.048Z,52.60
2023-12-18T21:34:16.817Z,44.60
2023-12-18T21:37:18.528Z,43.80
2023-12-18T21:40:21.031Z,47.60
2023-12-18T21:43:23.393Z,48.80
2023-12-18T21:46:25.776Z,45.80
2023-12-18T21:49:27.772Z,46.90
2023-12-18T21:52:29.674Z,50.80
2023-12-18T21:55:33.043Z,58.80
2023-12-18T21:58:34.690Z,51.80
2023-12-18T22:01:38.696Z,55.60
2023-12-18T22:04:40.858Z,55.20
2023-12-18T22:07:42.633Z,59.40
2023-12-18T22:10:44.413Z,60.10
2023-12-18T22:13:46.110Z,55.90
2023-12-18T22:16:48.132Z,54.80
2023-12-18T22:19:49.957Z,63.60
2023-12-18T22:22:51.719Z,53.20
2023-12-18T22:25:53.704Z,48.70
2023-12-18T22:31:56.882Z,58.10
2023-12-18T22:34:58.788Z,65.00
2023-12-18T22:38:00.482Z,54.50
2023-12-18T22:41:02.413Z,48.80
2023-12-18T22:47:05.761Z,51.20
2023-12-18T22:50:07.656Z,54.30
2023-12-18T22:53:09.321Z,57.20
2023-12-18T22:56:11.169Z,57.20
2023-12-18T23:02:14.458Z,57.00
2023-12-18T23:05:16.367Z,56.30
2023-12-18T23:11:21.300Z,53.40
2023-12-18T23:14:22.885Z,58.50
2023-12-18T23:20:26.118Z,50.40
2023-12-18T23:23:27.762Z,50.60
2023-12-18T23:26:29.960Z,48.00
2023-12-18T23:35:35.223Z,37.70
2023-12-18T23:38:37.094Z,35.80
2023-12-18T23:41:38.967Z,39.30
2023-12-18T23:47:42.142Z,38.20
2023-12-18T23:50:46.952Z,40.20
2023-12-18T23:53:48.623Z,38.60
2023-12-18T23:56:50.566Z,44.10
2023-12-18T23:59:52.569Z,41.90
